sensor_id;sensor_type;location;lat;lon;timestamp;P1;durP1;ratioP1;P2;durP2;ratioP2
68214;SDS011;55036;52.138;5.236;2022-11-14T00:00:52;20.88;;;10.93;;
68214;SDS011;55036;52.138;5.236;2022-11-14T00:03:19;16.80;;;12.82;;
68214;SDS011;55036;52.138;5.236;2022-11-14T00:05:46;15.90;;;12.65;;
68214;SDS011;55036;52.138;5.236;2022-11-14T00:08:17;17.17;;;12.27;;
68214;SDS011;55036;52.138;5.236;2022-11-14T00:10:50;20.88;;;13.60;;
68214;SDS011;55036;52.138;5.236;2022-11-14T00:13:17;21.63;;;12.45;;
68214;SDS011;55036;52.138;5.236;2022-11-14T00:15:47;17.02;;;12.02;;
68214;SDS011;55036;52.138;5.236;2022-11-14T00:18:15;21.75;;;13.60;;
68214;SDS011;55036;52.138;5.236;2022-11-14T00:20:42;18.17;;;12.95;;
68214;SDS011;55036;52.138;5.236;2022-11-14T00:23:12;18.95;;;13.68;;
68214;SDS011;55036;52.138;5.236;2022-11-14T00:25:38;19.20;;;13.40;;
68214;SDS011;55036;52.138;5.236;2022-11-14T00:28:05;19.55;;;13.38;;
68214;SDS011;55036;52.138;5.236;2022-11-14T00:30:31;17.63;;;12.70;;
68214;SDS011;55036;52.138;5.236;2022-11-14T00:32:58;21.38;;;11.18;;
68214;SDS011;55036;52.138;5.236;2022-11-14T00:35:25;22.08;;;14.23;;
68214;SDS011;55036;52.138;5.236;2022-11-14T00:37:51;24.20;;;15.48;;
68214;SDS011;55036;52.138;5.236;2022-11-14T00:40:18;23.95;;;15.23;;
68214;SDS011;55036;52.138;5.236;2022-11-14T00:42:45;21.00;;;14.30;;
68214;SDS011;55036;52.138;5.236;2022-11-14T00:45:11;22.23;;;14.80;;
68214;SDS011;55036;52.138;5.236;2022-11-14T00:47:38;24.35;;;15.52;;
68214;SDS011;55036;52.138;5.236;2022-11-14T00:50:05;21.08;;;15.20;;
68214;SDS011;55036;52.138;5.236;2022-11-14T00:52:32;25.73;;;16.15;;
68214;SDS011;55036;52.138;5.236;2022-11-14T00:54:58;26.27;;;16.17;;
68214;SDS011;55036;52.138;5.236;2022-11-14T00:57:25;21.38;;;15.65;;
68214;SDS011;55036;52.138;5.236;2022-11-14T00:59:52;27.48;;;16.58;;
68214;SDS011;55036;52.138;5.236;2022-11-14T01:02:20;26.25;;;17.13;;
68214;SDS011;55036;52.138;5.236;2022-11-14T01:04:47;27.20;;;16.42;;
68214;SDS011;55036;52.138;5.236;2022-11-14T01:07:14;27.58;;;16.38;;
68214;SDS011;55036;52.138;5.236;2022-11-14T01:09:40;28.83;;;16.60;;
68214;SDS011;55036;52.138;5.236;2022-11-14T01:12:07;26.00;;;16.20;;
68214;SDS011;55036;52.138;5.236;2022-11-14T01:14:34;28.67;;;17.20;;
68214;SDS011;55036;52.138;5.236;2022-11-14T01:17:00;32.28;;;17.90;;
68214;SDS011;55036;52.138;5.236;2022-11-14T01:19:27;28.33;;;17.75;;
68214;SDS011;55036;52.138;5.236;2022-11-14T01:21:54;30.75;;;18.48;;
68214;SDS011;55036;52.138;5.236;2022-11-14T01:24:20;28.75;;;17.40;;
68214;SDS011;55036;52.138;5.236;2022-11-14T01:26:47;28.60;;;17.13;;
68214;SDS011;55036;52.138;5.236;2022-11-14T01:29:14;32.30;;;18.20;;
68214;SDS011;55036;52.138;5.236;2022-11-14T01:31:40;31.40;;;17.60;;
68214;SDS011;55036;52.138;5.236;2022-11-14T01:34:07;32.90;;;19.63;;
68214;SDS011;55036;52.138;5.236;2022-11-14T01:36:33;30.30;;;18.33;;
68214;SDS011;55036;52.138;5.236;2022-11-14T01:39:00;33.83;;;18.98;;
68214;SDS011;55036;52.138;5.236;2022-11-14T01:41:27;30.92;;;18.92;;
68214;SDS011;55036;52.138;5.236;2022-11-14T01:43:54;36.55;;;20.10;;
68214;SDS011;55036;52.138;5.236;2022-11-14T01:46:32;32.50;;;19.60;;
68214;SDS011;55036;52.138;5.236;2022-11-14T01:49:21;33.17;;;19.25;;
68214;SDS011;55036;52.138;5.236;2022-11-14T01:52:03;33.70;;;19.17;;
68214;SDS011;55036;52.138;5.236;2022-11-14T01:54:34;32.83;;;19.92;;
68214;SDS011;55036;52.138;5.236;2022-11-14T01:57:08;38.50;;;20.08;;
68214;SDS011;55036;52.138;5.236;2022-11-14T01:59:38;31.20;;;20.05;;
68214;SDS011;55036;52.138;5.236;2022-11-14T02:02:09;33.03;;;20.63;;
68214;SDS011;55036;52.138;5.236;2022-11-14T02:04:42;35.72;;;20.92;;
68214;SDS011;55036;52.138;5.236;2022-11-14T02:07:12;39.35;;;21.98;;
68214;SDS011;55036;52.138;5.236;2022-11-14T02:09:42;37.00;;;20.17;;
68214;SDS011;55036;52.138;5.236;2022-11-14T02:12:11;35.47;;;20.17;;
68214;SDS011;55036;52.138;5.236;2022-11-14T02:14:40;33.58;;;17.80;;
68214;SDS011;55036;52.138;5.236;2022-11-14T02:17:10;31.60;;;18.45;;
68214;SDS011;55036;52.138;5.236;2022-11-14T02:25:04;39.15;;;21.83;;
68214;SDS011;55036;52.138;5.236;2022-11-14T02:27:32;37.47;;;21.10;;
68214;SDS011;55036;52.138;5.236;2022-11-14T02:30:03;36.72;;;21.77;;
68214;SDS011;55036;52.138;5.236;2022-11-14T02:32:32;50.50;;;24.77;;
68214;SDS011;55036;52.138;5.236;2022-11-14T02:35:19;31.50;;;17.13;;
68214;SDS011;55036;52.138;5.236;2022-11-14T02:37:46;46.35;;;24.05;;
68214;SDS011;55036;52.138;5.236;2022-11-14T02:40:12;41.00;;;22.85;;
68214;SDS011;55036;52.138;5.236;2022-11-14T02:42:39;40.25;;;24.10;;
68214;SDS011;55036;52.138;5.236;2022-11-14T02:45:06;42.05;;;23.10;;
68214;SDS011;55036;52.138;5.236;2022-11-14T02:47:34;43.30;;;24.08;;
68214;SDS011;55036;52.138;5.236;2022-11-14T02:50:01;42.58;;;21.95;;
68214;SDS011;55036;52.138;5.236;2022-11-14T02:52:28;36.80;;;21.60;;
68214;SDS011;55036;52.138;5.236;2022-11-14T02:54:54;40.85;;;24.10;;
68214;SDS011;55036;52.138;5.236;2022-11-14T02:57:21;44.58;;;24.92;;
68214;SDS011;55036;52.138;5.236;2022-11-14T02:59:48;43.15;;;23.30;;
68214;SDS011;55036;52.138;5.236;2022-11-14T03:02:14;44.53;;;24.60;;
68214;SDS011;55036;52.138;5.236;2022-11-14T03:04:41;47.58;;;25.48;;
68214;SDS011;55036;52.138;5.236;2022-11-14T03:07:07;43.50;;;25.10;;
68214;SDS011;55036;52.138;5.236;2022-11-14T03:09:34;45.35;;;25.20;;
68214;SDS011;55036;52.138;5.236;2022-11-14T03:12:01;41.60;;;22.35;;
68214;SDS011;55036;52.138;5.236;2022-11-14T03:14:29;41.05;;;22.50;;
68214;SDS011;55036;52.138;5.236;2022-11-14T03:16:56;46.95;;;25.13;;
68214;SDS011;55036;52.138;5.236;2022-11-14T03:19:23;43.35;;;23.70;;
68214;SDS011;55036;52.138;5.236;2022-11-14T03:21:49;50.65;;;26.15;;
68214;SDS011;55036;52.138;5.236;2022-11-14T03:24:16;44.03;;;23.63;;
68214;SDS011;55036;52.138;5.236;2022-11-14T03:26:42;46.97;;;25.02;;
68214;SDS011;55036;52.138;5.236;2022-11-14T03:29:09;44.22;;;23.42;;
68214;SDS011;55036;52.138;5.236;2022-11-14T03:31:36;42.97;;;21.65;;
68214;SDS011;55036;52.138;5.236;2022-11-14T03:34:02;47.85;;;24.40;;
68214;SDS011;55036;52.138;5.236;2022-11-14T03:36:29;48.78;;;25.92;;
68214;SDS011;55036;52.138;5.236;2022-11-14T03:38:55;48.28;;;24.58;;
68214;SDS011;55036;52.138;5.236;2022-11-14T03:44:54;51.08;;;26.48;;
68214;SDS011;55036;52.138;5.236;2022-11-14T03:51:02;45.90;;;26.13;;
68214;SDS011;55036;52.138;5.236;2022-11-14T03:53:29;43.55;;;22.85;;
68214;SDS011;55036;52.138;5.236;2022-11-14T03:55:55;46.60;;;24.77;;
68214;SDS011;55036;52.138;5.236;2022-11-14T03:58:22;47.35;;;25.67;;
68214;SDS011;55036;52.138;5.236;2022-11-14T04:00:48;44.88;;;25.00;;
68214;SDS011;55036;52.138;5.236;2022-11-14T04:03:15;47.20;;;25.08;;
68214;SDS011;55036;52.138;5.236;2022-11-14T04:05:42;47.72;;;24.50;;
68214;SDS011;55036;52.138;5.236;2022-11-14T04:08:10;45.15;;;23.73;;
68214;SDS011;55036;52.138;5.236;2022-11-14T04:10:37;50.45;;;24.75;;
68214;SDS011;55036;52.138;5.236;2022-11-14T04:13:03;52.30;;;25.20;;
68214;SDS011;55036;52.138;5.236;2022-11-14T04:15:30;45.20;;;22.70;;
68214;SDS011;55036;52.138;5.236;2022-11-14T04:17:57;51.40;;;24.38;;
68214;SDS011;55036;52.138;5.236;2022-11-14T04:20:23;44.67;;;23.85;;
68214;SDS011;55036;52.138;5.236;2022-11-14T04:22:50;49.10;;;25.85;;
68214;SDS011;55036;52.138;5.236;2022-11-14T04:25:16;46.83;;;23.13;;
68214;SDS011;55036;52.138;5.236;2022-11-14T04:27:43;50.15;;;24.55;;
68214;SDS011;55036;52.138;5.236;2022-11-14T04:30:10;53.17;;;25.60;;
68214;SDS011;55036;52.138;5.236;2022-11-14T04:32:37;49.75;;;24.92;;
68214;SDS011;55036;52.138;5.236;2022-11-14T04:35:03;51.38;;;24.80;;
68214;SDS011;55036;52.138;5.236;2022-11-14T04:37:30;54.20;;;24.15;;
68214;SDS011;55036;52.138;5.236;2022-11-14T04:39:57;45.60;;;25.33;;
68214;SDS011;55036;52.138;5.236;2022-11-14T04:42:25;47.75;;;26.20;;
68214;SDS011;55036;52.138;5.236;2022-11-14T04:44:52;53.13;;;25.20;;
68214;SDS011;55036;52.138;5.236;2022-11-14T04:47:19;50.33;;;25.15;;
68214;SDS011;55036;52.138;5.236;2022-11-14T04:49:45;46.33;;;23.55;;
68214;SDS011;55036;52.138;5.236;2022-11-14T04:52:12;48.33;;;23.90;;
68214;SDS011;55036;52.138;5.236;2022-11-14T04:54:39;53.35;;;25.17;;
68214;SDS011;55036;52.138;5.236;2022-11-14T04:57:05;47.60;;;23.67;;
68214;SDS011;55036;52.138;5.236;2022-11-14T04:59:32;44.08;;;23.00;;
68214;SDS011;55036;52.138;5.236;2022-11-14T05:01:59;44.63;;;23.33;;
68214;SDS011;55036;52.138;5.236;2022-11-14T05:04:25;38.50;;;20.17;;
68214;SDS011;55036;52.138;5.236;2022-11-14T05:06:52;45.00;;;22.27;;
68214;SDS011;55036;52.138;5.236;2022-11-14T05:09:18;43.88;;;24.33;;
68214;SDS011;55036;52.138;5.236;2022-11-14T05:11:45;42.33;;;21.77;;
68214;SDS011;55036;52.138;5.236;2022-11-14T05:14:12;46.25;;;23.23;;
68214;SDS011;55036;52.138;5.236;2022-11-14T05:16:38;44.80;;;22.52;;
68214;SDS011;55036;52.138;5.236;2022-11-14T05:19:05;45.28;;;22.88;;
68214;SDS011;55036;52.138;5.236;2022-11-14T05:21:32;43.17;;;22.42;;
68214;SDS011;55036;52.138;5.236;2022-11-14T05:23:59;42.45;;;22.85;;
68214;SDS011;55036;52.138;5.236;2022-11-14T05:26:25;39.83;;;21.85;;
68214;SDS011;55036;52.138;5.236;2022-11-14T05:28:52;40.25;;;22.77;;
68214;SDS011;55036;52.138;5.236;2022-11-14T05:31:18;48.60;;;22.80;;
68214;SDS011;55036;52.138;5.236;2022-11-14T05:33:45;41.88;;;23.42;;
68214;SDS011;55036;52.138;5.236;2022-11-14T05:36:13;41.28;;;20.92;;
68214;SDS011;55036;52.138;5.236;2022-11-14T05:38:41;44.40;;;22.25;;
68214;SDS011;55036;52.138;5.236;2022-11-14T05:41:09;44.10;;;21.50;;
68214;SDS011;55036;52.138;5.236;2022-11-14T05:43:37;47.17;;;21.73;;
68214;SDS011;55036;52.138;5.236;2022-11-14T05:46:05;38.92;;;19.52;;
68214;SDS011;55036;52.138;5.236;2022-11-14T05:48:34;37.08;;;21.65;;
68214;SDS011;55036;52.138;5.236;2022-11-14T05:51:01;42.45;;;20.45;;
68214;SDS011;55036;52.138;5.236;2022-11-14T05:53:30;38.30;;;18.13;;
68214;SDS011;55036;52.138;5.236;2022-11-14T05:56:02;41.92;;;20.10;;
68214;SDS011;55036;52.138;5.236;2022-11-14T05:58:31;40.38;;;20.92;;
68214;SDS011;55036;52.138;5.236;2022-11-14T06:03:36;39.15;;;21.55;;
68214;SDS011;55036;52.138;5.236;2022-11-14T06:06:05;41.65;;;21.50;;
68214;SDS011;55036;52.138;5.236;2022-11-14T06:08:33;39.00;;;20.67;;
68214;SDS011;55036;52.138;5.236;2022-11-14T06:11:04;39.38;;;21.10;;
68214;SDS011;55036;52.138;5.236;2022-11-14T06:13:38;39.28;;;21.15;;
68214;SDS011;55036;52.138;5.236;2022-11-14T06:16:07;28.55;;;13.75;;
68214;SDS011;55036;52.138;5.236;2022-11-14T06:18:36;38.90;;;19.98;;
68214;SDS011;55036;52.138;5.236;2022-11-14T06:21:04;39.13;;;18.67;;
68214;SDS011;55036;52.138;5.236;2022-11-14T06:23:33;40.55;;;19.02;;
68214;SDS011;55036;52.138;5.236;2022-11-14T06:26:00;38.33;;;20.20;;
68214;SDS011;55036;52.138;5.236;2022-11-14T06:28:28;37.67;;;19.05;;
68214;SDS011;55036;52.138;5.236;2022-11-14T06:30:59;37.03;;;19.85;;
68214;SDS011;55036;52.138;5.236;2022-11-14T06:33:27;37.78;;;19.42;;
68214;SDS011;55036;52.138;5.236;2022-11-14T06:35:58;37.95;;;20.10;;
68214;SDS011;55036;52.138;5.236;2022-11-14T06:38:26;35.95;;;17.20;;
68214;SDS011;55036;52.138;5.236;2022-11-14T06:41:05;40.25;;;21.30;;
68214;SDS011;55036;52.138;5.236;2022-11-14T06:43:33;41.30;;;20.65;;
68214;SDS011;55036;52.138;5.236;2022-11-14T06:46:05;35.83;;;19.65;;
68214;SDS011;55036;52.138;5.236;2022-11-14T06:48:33;38.75;;;18.90;;
68214;SDS011;55036;52.138;5.236;2022-11-14T06:51:00;37.40;;;20.05;;
68214;SDS011;55036;52.138;5.236;2022-11-14T06:53:28;39.50;;;19.30;;
68214;SDS011;55036;52.138;5.236;2022-11-14T06:58:39;35.72;;;18.55;;
68214;SDS011;55036;52.138;5.236;2022-11-14T07:01:10;36.85;;;19.48;;
68214;SDS011;55036;52.138;5.236;2022-11-14T07:03:41;39.85;;;20.25;;
68214;SDS011;55036;52.138;5.236;2022-11-14T07:06:09;38.38;;;20.73;;
68214;SDS011;55036;52.138;5.236;2022-11-14T07:08:37;40.78;;;20.50;;
68214;SDS011;55036;52.138;5.236;2022-11-14T07:11:05;36.55;;;18.55;;
68214;SDS011;55036;52.138;5.236;2022-11-14T07:13:37;31.73;;;16.00;;
68214;SDS011;55036;52.138;5.236;2022-11-14T07:16:04;36.15;;;17.83;;
68214;SDS011;55036;52.138;5.236;2022-11-14T07:18:31;31.35;;;14.07;;
68214;SDS011;55036;52.138;5.236;2022-11-14T07:21:00;35.60;;;19.88;;
68214;SDS011;55036;52.138;5.236;2022-11-14T07:23:31;31.83;;;17.08;;
68214;SDS011;55036;52.138;5.236;2022-11-14T07:26:00;42.33;;;21.35;;
68214;SDS011;55036;52.138;5.236;2022-11-14T07:28:27;34.65;;;19.23;;
68214;SDS011;55036;52.138;5.236;2022-11-14T07:30:55;35.53;;;18.63;;
68214;SDS011;55036;52.138;5.236;2022-11-14T07:33:21;38.85;;;19.08;;
68214;SDS011;55036;52.138;5.236;2022-11-14T07:35:49;38.60;;;20.05;;
68214;SDS011;55036;52.138;5.236;2022-11-14T07:38:16;35.45;;;18.73;;
68214;SDS011;55036;52.138;5.236;2022-11-14T07:40:51;38.45;;;19.17;;
68214;SDS011;55036;52.138;5.236;2022-11-14T07:43:27;35.55;;;19.27;;
68214;SDS011;55036;52.138;5.236;2022-11-14T07:46:01;35.47;;;18.08;;
68214;SDS011;55036;52.138;5.236;2022-11-14T07:48:30;34.92;;;18.17;;
68214;SDS011;55036;52.138;5.236;2022-11-14T07:51:01;38.05;;;20.05;;
68214;SDS011;55036;52.138;5.236;2022-11-14T07:53:29;37.38;;;18.83;;
68214;SDS011;55036;52.138;5.236;2022-11-14T07:55:56;35.08;;;18.35;;
68214;SDS011;55036;52.138;5.236;2022-11-14T07:58:28;32.85;;;17.88;;
68214;SDS011;55036;52.138;5.236;2022-11-14T08:00:58;33.88;;;17.75;;
68214;SDS011;55036;52.138;5.236;2022-11-14T08:03:26;27.80;;;15.10;;
68214;SDS011;55036;52.138;5.236;2022-11-14T08:06:06;35.65;;;17.27;;
68214;SDS011;55036;52.138;5.236;2022-11-14T08:08:37;30.85;;;17.20;;
68214;SDS011;55036;52.138;5.236;2022-11-14T08:11:04;32.97;;;17.40;;
68214;SDS011;55036;52.138;5.236;2022-11-14T08:13:31;34.08;;;18.33;;
68214;SDS011;55036;52.138;5.236;2022-11-14T08:16:02;35.95;;;17.95;;
68214;SDS011;55036;52.138;5.236;2022-11-14T08:18:37;32.30;;;18.40;;
68214;SDS011;55036;52.138;5.236;2022-11-14T08:21:04;34.13;;;17.52;;
68214;SDS011;55036;52.138;5.236;2022-11-14T08:23:31;32.45;;;17.30;;
68214;SDS011;55036;52.138;5.236;2022-11-14T08:25:58;36.50;;;18.13;;
68214;SDS011;55036;52.138;5.236;2022-11-14T08:28:25;34.38;;;17.73;;
68214;SDS011;55036;52.138;5.236;2022-11-14T08:30:52;28.60;;;16.80;;
68214;SDS011;55036;52.138;5.236;2022-11-14T08:33:23;30.75;;;16.65;;
68214;SDS011;55036;52.138;5.236;2022-11-14T08:35:49;29.42;;;16.77;;
68214;SDS011;55036;52.138;5.236;2022-11-14T08:38:16;30.85;;;17.27;;
68214;SDS011;55036;52.138;5.236;2022-11-14T08:40:43;25.88;;;16.30;;
68214;SDS011;55036;52.138;5.236;2022-11-14T08:43:09;28.73;;;15.77;;
68214;SDS011;55036;52.138;5.236;2022-11-14T08:45:36;31.38;;;17.35;;
68214;SDS011;55036;52.138;5.236;2022-11-14T08:48:03;31.80;;;16.75;;
68214;SDS011;55036;52.138;5.236;2022-11-14T08:50:30;27.40;;;16.55;;
68214;SDS011;55036;52.138;5.236;2022-11-14T08:52:57;29.33;;;16.00;;
68214;SDS011;55036;52.138;5.236;2022-11-14T08:55:24;29.23;;;17.17;;
68214;SDS011;55036;52.138;5.236;2022-11-14T08:57:51;28.10;;;15.60;;
68214;SDS011;55036;52.138;5.236;2022-11-14T09:00:19;22.25;;;14.18;;
68214;SDS011;55036;52.138;5.236;2022-11-14T09:02:46;27.02;;;15.40;;
68214;SDS011;55036;52.138;5.236;2022-11-14T09:05:12;27.48;;;16.40;;
68214;SDS011;55036;52.138;5.236;2022-11-14T09:07:39;28.00;;;15.15;;
68214;SDS011;55036;52.138;5.236;2022-11-14T09:10:05;26.73;;;14.82;;
68214;SDS011;55036;52.138;5.236;2022-11-14T09:12:32;27.95;;;15.52;;
68214;SDS011;55036;52.138;5.236;2022-11-14T09:14:59;25.02;;;15.10;;
68214;SDS011;55036;52.138;5.236;2022-11-14T09:17:26;25.80;;;15.95;;
68214;SDS011;55036;52.138;5.236;2022-11-14T09:19:52;25.77;;;14.30;;
68214;SDS011;55036;52.138;5.236;2022-11-14T09:22:19;25.02;;;14.85;;
68214;SDS011;55036;52.138;5.236;2022-11-14T09:24:46;25.15;;;14.90;;
68214;SDS011;55036;52.138;5.236;2022-11-14T09:27:14;26.85;;;15.90;;
68214;SDS011;55036;52.138;5.236;2022-11-14T09:29:41;23.20;;;13.18;;
68214;SDS011;55036;52.138;5.236;2022-11-14T09:32:08;24.92;;;15.02;;
68214;SDS011;55036;52.138;5.236;2022-11-14T09:34:34;26.05;;;15.05;;
68214;SDS011;55036;52.138;5.236;2022-11-14T09:37:02;21.77;;;13.00;;
68214;SDS011;55036;52.138;5.236;2022-11-14T09:39:28;21.77;;;12.55;;
68214;SDS011;55036;52.138;5.236;2022-11-14T09:41:59;23.92;;;14.60;;
68214;SDS011;55036;52.138;5.236;2022-11-14T09:44:45;22.67;;;13.82;;
68214;SDS011;55036;52.138;5.236;2022-11-14T09:47:20;25.55;;;13.82;;
68214;SDS011;55036;52.138;5.236;2022-11-14T09:50:05;22.63;;;14.18;;
68214;SDS011;55036;52.138;5.236;2022-11-14T09:52:57;22.52;;;14.48;;
68214;SDS011;55036;52.138;5.236;2022-11-14T09:58:02;21.42;;;13.73;;
68214;SDS011;55036;52.138;5.236;2022-11-14T10:01:31;21.77;;;13.23;;
68214;SDS011;55036;52.138;5.236;2022-11-14T10:11:35;18.65;;;13.57;;
68214;SDS011;55036;52.138;5.236;2022-11-14T10:17:07;22.75;;;13.38;;
68214;SDS011;55036;52.138;5.236;2022-11-14T10:20:01;21.25;;;13.68;;
68214;SDS011;55036;52.138;5.236;2022-11-14T10:22:56;20.15;;;12.73;;
68214;SDS011;55036;52.138;5.236;2022-11-14T10:25:35;21.05;;;11.50;;
68214;SDS011;55036;52.138;5.236;2022-11-14T10:31:12;19.45;;;12.07;;
68214;SDS011;55036;52.138;5.236;2022-11-14T10:34:17;21.33;;;11.77;;
68214;SDS011;55036;52.138;5.236;2022-11-14T10:39:54;15.88;;;10.80;;
68214;SDS011;55036;52.138;5.236;2022-11-14T10:42:36;18.00;;;11.52;;
68214;SDS011;55036;52.138;5.236;2022-11-14T10:50:57;16.05;;;10.07;;
68214;SDS011;55036;52.138;5.236;2022-11-14T10:55:57;14.80;;;10.57;;
68214;SDS011;55036;52.138;5.236;2022-11-14T10:58:30;15.73;;;10.52;;
68214;SDS011;55036;52.138;5.236;2022-11-14T11:06:39;16.75;;;11.02;;
68214;SDS011;55036;52.138;5.236;2022-11-14T11:09:06;16.38;;;11.20;;
68214;SDS011;55036;52.138;5.236;2022-11-14T11:11:54;18.38;;;11.18;;
68214;SDS011;55036;52.138;5.236;2022-11-14T11:14:26;17.65;;;12.02;;
68214;SDS011;55036;52.138;5.236;2022-11-14T11:17:07;17.95;;;12.38;;
68214;SDS011;55036;52.138;5.236;2022-11-14T11:19:43;18.80;;;12.75;;
68214;SDS011;55036;52.138;5.236;2022-11-14T11:22:29;14.88;;;11.20;;
68214;SDS011;55036;52.138;5.236;2022-11-14T11:25:21;17.17;;;11.43;;
68214;SDS011;55036;52.138;5.236;2022-11-14T11:28:11;13.18;;;8.23;;
68214;SDS011;55036;52.138;5.236;2022-11-14T11:30:40;16.70;;;10.98;;
68214;SDS011;55036;52.138;5.236;2022-11-14T11:35:49;18.10;;;12.82;;
68214;SDS011;55036;52.138;5.236;2022-11-14T11:38:19;14.02;;;9.40;;
68214;SDS011;55036;52.138;5.236;2022-11-14T11:40:47;17.23;;;12.18;;
68214;SDS011;55036;52.138;5.236;2022-11-14T11:46:07;15.50;;;10.95;;
68214;SDS011;55036;52.138;5.236;2022-11-14T11:48:37;15.85;;;12.02;;
68214;SDS011;55036;52.138;5.236;2022-11-14T11:51:05;12.13;;;8.45;;
68214;SDS011;55036;52.138;5.236;2022-11-14T11:53:40;15.70;;;11.48;;
68214;SDS011;55036;52.138;5.236;2022-11-14T11:56:24;14.50;;;11.23;;
68214;SDS011;55036;52.138;5.236;2022-11-14T11:58:57;15.98;;;11.23;;
68214;SDS011;55036;52.138;5.236;2022-11-14T12:01:35;15.52;;;12.10;;
68214;SDS011;55036;52.138;5.236;2022-11-14T12:04:02;18.52;;;11.95;;
68214;SDS011;55036;52.138;5.236;2022-11-14T12:06:29;16.00;;;11.82;;
68214;SDS011;55036;52.138;5.236;2022-11-14T12:09:18;19.23;;;11.38;;
68214;SDS011;55036;52.138;5.236;2022-11-14T12:12:00;16.80;;;12.02;;
68214;SDS011;55036;52.138;5.236;2022-11-14T12:20:14;17.67;;;11.93;;
68214;SDS011;55036;52.138;5.236;2022-11-14T12:23:12;18.88;;;12.30;;
68214;SDS011;55036;52.138;5.236;2022-11-14T12:31:09;13.25;;;10.57;;
68214;SDS011;55036;52.138;5.236;2022-11-14T12:33:39;21.63;;;12.15;;
68214;SDS011;55036;52.138;5.236;2022-11-14T12:36:11;16.23;;;11.57;;
68214;SDS011;55036;52.138;5.236;2022-11-14T12:38:50;19.40;;;12.25;;
68214;SDS011;55036;52.138;5.236;2022-11-14T12:41:19;19.25;;;11.80;;
68214;SDS011;55036;52.138;5.236;2022-11-14T12:43:50;20.13;;;13.32;;
68214;SDS011;55036;52.138;5.236;2022-11-14T12:46:17;18.23;;;12.52;;
68214;SDS011;55036;52.138;5.236;2022-11-14T12:48:44;17.48;;;13.57;;
68214;SDS011;55036;52.138;5.236;2022-11-14T12:53:50;22.38;;;14.93;;
68214;SDS011;55036;52.138;5.236;2022-11-14T12:59:01;21.70;;;14.50;;
68214;SDS011;55036;52.138;5.236;2022-11-14T13:12:34;32.88;;;22.00;;
68214;SDS011;55036;52.138;5.236;2022-11-14T13:18:21;33.67;;;23.35;;
68214;SDS011;55036;52.138;5.236;2022-11-14T13:21:20;34.92;;;24.30;;
68214;SDS011;55036;52.138;5.236;2022-11-14T13:24:12;32.53;;;20.73;;
68214;SDS011;55036;52.138;5.236;2022-11-14T13:29:45;34.53;;;22.33;;
68214;SDS011;55036;52.138;5.236;2022-11-14T13:32:08;35.45;;;22.67;;
68214;SDS011;55036;52.138;5.236;2022-11-14T13:34:38;33.10;;;21.48;;
68214;SDS011;55036;52.138;5.236;2022-11-14T13:39:43;31.17;;;20.00;;
68214;SDS011;55036;52.138;5.236;2022-11-14T13:51:14;33.67;;;21.90;;
68214;SDS011;55036;52.138;5.236;2022-11-14T13:54:02;32.35;;;20.30;;
68214;SDS011;55036;52.138;5.236;2022-11-14T13:59:36;36.28;;;24.17;;
68214;SDS011;55036;52.138;5.236;2022-11-14T14:05:20;40.53;;;22.77;;
68214;SDS011;55036;52.138;5.236;2022-11-14T14:10:58;34.67;;;22.98;;
68214;SDS011;55036;52.138;5.236;2022-11-14T14:16:43;35.10;;;22.63;;
68214;SDS011;55036;52.138;5.236;2022-11-14T14:22:31;37.40;;;23.83;;
68214;SDS011;55036;52.138;5.236;2022-11-14T14:25:25;38.53;;;22.13;;
68214;SDS011;55036;52.138;5.236;2022-11-14T14:31:00;35.72;;;23.05;;
68214;SDS011;55036;52.138;5.236;2022-11-14T14:33:39;33.45;;;19.90;;
68214;SDS011;55036;52.138;5.236;2022-11-14T14:36:21;38.95;;;24.27;;
68214;SDS011;55036;52.138;5.236;2022-11-14T14:39:05;36.58;;;19.83;;
68214;SDS011;55036;52.138;5.236;2022-11-14T14:41:41;40.08;;;24.98;;
68214;SDS011;55036;52.138;5.236;2022-11-14T14:44:16;41.40;;;25.48;;
68214;SDS011;55036;52.138;5.236;2022-11-14T14:46:50;40.65;;;24.20;;
68214;SDS011;55036;52.138;5.236;2022-11-14T14:49:36;37.70;;;21.80;;
68214;SDS011;55036;52.138;5.236;2022-11-14T14:52:19;42.28;;;26.17;;
68214;SDS011;55036;52.138;5.236;2022-11-14T14:54:52;40.15;;;24.85;;
68214;SDS011;55036;52.138;5.236;2022-11-14T14:57:20;42.03;;;24.38;;
68214;SDS011;55036;52.138;5.236;2022-11-14T15:00:03;50.88;;;25.77;;
68214;SDS011;55036;52.138;5.236;2022-11-14T15:02:33;42.28;;;24.83;;
68214;SDS011;55036;52.138;5.236;2022-11-14T15:04:59;43.20;;;26.20;;
68214;SDS011;55036;52.138;5.236;2022-11-14T15:07:27;39.65;;;23.45;;
68214;SDS011;55036;52.138;5.236;2022-11-14T15:12:24;39.90;;;24.77;;
68214;SDS011;55036;52.138;5.236;2022-11-14T15:14:52;40.00;;;24.38;;
68214;SDS011;55036;52.138;5.236;2022-11-14T15:17:21;43.50;;;26.50;;
68214;SDS011;55036;52.138;5.236;2022-11-14T15:19:48;39.13;;;25.85;;
68214;SDS011;55036;52.138;5.236;2022-11-14T15:25:02;44.08;;;26.17;;
68214;SDS011;55036;52.138;5.236;2022-11-14T15:27:47;40.13;;;24.70;;
68214;SDS011;55036;52.138;5.236;2022-11-14T15:30:24;40.70;;;23.73;;
68214;SDS011;55036;52.138;5.236;2022-11-14T15:32:56;41.05;;;23.45;;
68214;SDS011;55036;52.138;5.236;2022-11-14T15:35:26;39.67;;;23.25;;
68214;SDS011;55036;52.138;5.236;2022-11-14T15:38:01;37.50;;;24.60;;
68214;SDS011;55036;52.138;5.236;2022-11-14T15:41:25;40.00;;;24.40;;
68214;SDS011;55036;52.138;5.236;2022-11-14T15:43:56;37.85;;;23.05;;
68214;SDS011;55036;52.138;5.236;2022-11-14T15:49:05;39.67;;;24.38;;
68214;SDS011;55036;52.138;5.236;2022-11-14T15:54:19;43.25;;;24.42;;
68214;SDS011;55036;52.138;5.236;2022-11-14T15:56:51;36.50;;;23.23;;
68214;SDS011;55036;52.138;5.236;2022-11-14T15:59:19;36.47;;;23.80;;
68214;SDS011;55036;52.138;5.236;2022-11-14T16:01:53;42.20;;;24.60;;
68214;SDS011;55036;52.138;5.236;2022-11-14T16:04:29;41.60;;;24.77;;
68214;SDS011;55036;52.138;5.236;2022-11-14T16:06:59;37.72;;;23.27;;
68214;SDS011;55036;52.138;5.236;2022-11-14T16:09:26;39.53;;;23.52;;
68214;SDS011;55036;52.138;5.236;2022-11-14T16:11:52;42.70;;;24.55;;
68214;SDS011;55036;52.138;5.236;2022-11-14T16:14:19;39.38;;;23.92;;
68214;SDS011;55036;52.138;5.236;2022-11-14T16:16:45;41.33;;;24.08;;
68214;SDS011;55036;52.138;5.236;2022-11-14T16:19:13;43.33;;;24.92;;
68214;SDS011;55036;52.138;5.236;2022-11-14T16:21:41;42.38;;;23.63;;
68214;SDS011;55036;52.138;5.236;2022-11-14T16:24:10;38.90;;;25.20;;
68214;SDS011;55036;52.138;5.236;2022-11-14T16:26:40;41.50;;;25.55;;
68214;SDS011;55036;52.138;5.236;2022-11-14T16:29:07;39.38;;;24.40;;
68214;SDS011;55036;52.138;5.236;2022-11-14T16:31:34;41.50;;;25.70;;
68214;SDS011;55036;52.138;5.236;2022-11-14T16:34:01;43.83;;;26.30;;
68214;SDS011;55036;52.138;5.236;2022-11-14T16:36:27;43.17;;;25.95;;
68214;SDS011;55036;52.138;5.236;2022-11-14T16:38:56;48.55;;;29.13;;
68214;SDS011;55036;52.138;5.236;2022-11-14T16:41:26;49.00;;;29.38;;
68214;SDS011;55036;52.138;5.236;2022-11-14T16:43:53;46.80;;;29.30;;
68214;SDS011;55036;52.138;5.236;2022-11-14T16:46:21;41.85;;;27.13;;
68214;SDS011;55036;52.138;5.236;2022-11-14T16:48:48;44.03;;;28.00;;
68214;SDS011;55036;52.138;5.236;2022-11-14T16:51:16;46.42;;;27.67;;